createdAt,value
2018-08-16T00:00:59.101Z,20.30
2018-08-16T00:03:27.166Z,20.20
2018-08-16T00:05:55.195Z,20.20
2018-08-16T00:08:23.236Z,20.20
2018-08-16T00:10:51.280Z,20.10
2018-08-16T00:13:19.325Z,20.10
2018-08-16T00:15:47.343Z,20.10
2018-08-16T00:18:15.375Z,20.10
2018-08-16T00:20:43.448Z,20.10
2018-08-16T00:23:11.489Z,20.00
2018-08-16T00:25:39.499Z,20.00
2018-08-16T00:28:07.536Z,20.00
2018-08-16T00:30:35.584Z,20.10
2018-08-16T00:33:03.624Z,20.10
2018-08-16T00:35:31.659Z,20.10
2018-08-16T00:37:59.702Z,20.10
2018-08-16T00:40:27.707Z,20.10
2018-08-16T00:42:55.739Z,20.10
2018-08-16T00:45:23.776Z,20.00
2018-08-16T00:47:51.808Z,19.90
2018-08-16T00:50:19.818Z,20.00
2018-08-16T00:52:47.841Z,20.00
2018-08-16T00:55:15.864Z,20.00
2018-08-16T00:57:43.895Z,19.90
2018-08-16T01:00:13.860Z,19.90
2018-08-16T01:02:41.908Z,19.90
2018-08-16T01:05:10.079Z,19.80
2018-08-16T01:07:38.140Z,19.80
2018-08-16T01:10:08.237Z,19.80
2018-08-16T01:12:36.288Z,19.80
2018-08-16T01:15:06.000Z,19.80
2018-08-16T01:17:34.024Z,19.70
2018-08-16T01:20:02.036Z,19.70
2018-08-16T01:22:30.067Z,19.60
2018-08-16T01:24:58.112Z,19.60
2018-08-16T01:27:26.157Z,19.50
2018-08-16T01:29:54.180Z,19.50
2018-08-16T01:32:22.203Z,19.40
2018-08-16T01:34:50.233Z,19.40
2018-08-16T01:37:18.259Z,19.40
2018-08-16T01:39:46.338Z,19.50
2018-08-16T01:42:14.344Z,19.40
2018-08-16T01:44:42.367Z,19.40
2018-08-16T01:47:10.396Z,19.20
2018-08-16T01:49:38.954Z,19.10
2018-08-16T01:52:07.072Z,19.20
2018-08-16T01:54:35.115Z,19.20
2018-08-16T01:57:03.672Z,19.10
2018-08-16T01:59:31.692Z,19.00
2018-08-16T02:01:59.743Z,19.00
2018-08-16T02:04:27.779Z,19.10
2018-08-16T02:06:55.830Z,19.10
2018-08-16T02:09:24.349Z,19.20
2018-08-16T02:11:52.711Z,19.20
2018-08-16T02:14:21.007Z,19.20
2018-08-16T02:16:49.716Z,19.20
2018-08-16T02:19:17.760Z,19.20
2018-08-16T02:21:45.805Z,19.00
2018-08-16T02:24:13.819Z,19.10
2018-08-16T02:26:41.855Z,19.10
2018-08-16T02:29:09.883Z,19.10
2018-08-16T02:31:37.928Z,19.10
2018-08-16T02:34:06.129Z,19.10
2018-08-16T02:36:34.155Z,18.90
2018-08-16T02:39:02.173Z,18.90
2018-08-16T02:41:30.193Z,18.90
2018-08-16T02:43:58.204Z,18.80
2018-08-16T02:46:26.252Z,18.80
2018-08-16T02:48:54.315Z,18.80
2018-08-16T02:51:22.344Z,18.80
2018-08-16T02:53:50.360Z,18.80
2018-08-16T02:56:18.368Z,18.80
2018-08-16T02:58:46.408Z,18.80
2018-08-16T03:01:14.416Z,18.80
2018-08-16T03:03:42.440Z,18.60
2018-08-16T03:06:10.523Z,18.50
2018-08-16T03:08:38.527Z,18.60
2018-08-16T03:11:07.024Z,18.60
2018-08-16T03:13:35.040Z,18.70
2018-08-16T03:16:03.092Z,18.70
2018-08-16T03:18:31.127Z,18.70
2018-08-16T03:20:59.164Z,18.70
2018-08-16T03:23:27.237Z,18.70
2018-08-16T03:25:55.284Z,18.60
2018-08-16T03:28:23.300Z,18.60
2018-08-16T03:30:51.342Z,18.60
2018-08-16T03:33:19.379Z,18.50
2018-08-16T03:35:47.413Z,18.50
2018-08-16T03:38:15.472Z,18.50
2018-08-16T03:40:43.513Z,18.60
2018-08-16T03:43:11.528Z,18.50
2018-08-16T03:45:39.556Z,18.50
2018-08-16T03:48:07.663Z,18.50
2018-08-16T03:50:35.663Z,18.50
2018-08-16T03:53:03.711Z,18.50
2018-08-16T03:55:31.741Z,18.50
2018-08-16T03:57:59.781Z,18.40
2018-08-16T04:00:27.835Z,18.20
2018-08-16T04:02:55.887Z,18.10
2018-08-16T04:05:23.968Z,18.00
2018-08-16T04:07:51.992Z,18.00
2018-08-16T04:10:20.028Z,17.90
2018-08-16T04:12:48.115Z,17.90
2018-08-16T04:15:16.140Z,17.90
2018-08-16T04:17:44.212Z,18.00
2018-08-16T04:20:12.249Z,18.10
2018-08-16T04:22:40.283Z,18.10
2018-08-16T04:25:08.345Z,18.10
2018-08-16T04:27:36.392Z,18.10
2018-08-16T04:30:05.331Z,18.10
2018-08-16T04:32:33.356Z,18.20
2018-08-16T04:35:01.421Z,18.30
2018-08-16T04:37:29.476Z,18.30
2018-08-16T04:39:57.508Z,18.30
2018-08-16T04:42:25.548Z,18.30
2018-08-16T04:44:53.577Z,18.30
2018-08-16T04:47:21.588Z,18.30
2018-08-16T04:49:49.627Z,18.30
2018-08-16T04:52:17.698Z,18.30
2018-08-16T04:54:45.755Z,18.20
2018-08-16T04:57:13.775Z,18.30
2018-08-16T04:59:41.805Z,18.30
2018-08-16T05:02:09.840Z,18.30
2018-08-16T05:04:37.883Z,18.30
2018-08-16T05:07:05.923Z,18.30
2018-08-16T05:09:33.970Z,18.40
2018-08-16T05:12:02.020Z,18.40
2018-08-16T05:14:30.049Z,18.40
2018-08-16T05:16:58.076Z,18.50
2018-08-16T05:19:26.106Z,18.50
2018-08-16T05:21:54.155Z,18.50
2018-08-16T05:24:22.172Z,18.60
2018-08-16T05:26:50.274Z,18.60
2018-08-16T05:29:18.291Z,18.60
2018-08-16T05:31:46.357Z,18.60
2018-08-16T05:34:14.336Z,18.70
2018-08-16T05:36:42.384Z,18.70
2018-08-16T05:39:11.811Z,18.80
2018-08-16T05:41:40.064Z,18.80
2018-08-16T05:44:08.324Z,18.70
2018-08-16T05:46:36.373Z,18.80
2018-08-16T05:49:04.459Z,18.90
2018-08-16T05:51:32.490Z,18.90
2018-08-16T05:54:00.526Z,18.80
2018-08-16T05:56:28.581Z,18.90
2018-08-16T05:58:56.580Z,19.00
2018-08-16T06:01:24.626Z,19.10
2018-08-16T06:03:52.753Z,19.10
2018-08-16T06:06:20.793Z,19.20
2018-08-16T06:08:48.808Z,19.30
2018-08-16T06:11:16.868Z,19.30
2018-08-16T06:13:44.921Z,19.40
2018-08-16T06:16:12.956Z,19.50
2018-08-16T06:18:41.008Z,19.70
2018-08-16T06:21:09.044Z,19.70
2018-08-16T06:23:37.129Z,19.70
2018-08-16T06:26:05.157Z,19.80
2018-08-16T06:28:33.280Z,19.90
2018-08-16T06:31:01.336Z,19.90
2018-08-16T06:33:29.536Z,19.90
2018-08-16T06:35:57.553Z,20.00
2018-08-16T06:38:25.592Z,20.10
2018-08-16T06:40:53.726Z,20.10
2018-08-16T06:43:21.768Z,20.30
2018-08-16T06:45:49.861Z,20.40
2018-08-16T06:48:17.927Z,20.60
2018-08-16T06:50:45.964Z,20.70
2018-08-16T06:53:14.008Z,20.70
2018-08-16T06:55:42.073Z,20.80
2018-08-16T06:58:10.142Z,20.90
2018-08-16T07:00:38.173Z,21.00
2018-08-16T07:03:06.217Z,21.00
2018-08-16T07:05:34.243Z,21.10
2018-08-16T07:08:02.302Z,21.20
2018-08-16T07:10:30.307Z,21.30
2018-08-16T07:12:58.355Z,21.50
2018-08-16T07:15:26.440Z,21.60
2018-08-16T07:17:54.515Z,21.80
2018-08-16T07:20:22.548Z,22.10
2018-08-16T07:22:50.605Z,22.30
2018-08-16T07:25:18.632Z,22.50
2018-08-16T07:27:46.672Z,22.60
2018-08-16T07:30:14.729Z,22.90
2018-08-16T07:32:42.812Z,23.00
2018-08-16T07:35:11.008Z,23.20
2018-08-16T07:37:39.057Z,23.40
2018-08-16T07:40:07.841Z,23.40
2018-08-16T07:42:35.865Z,23.40
2018-08-16T07:45:04.576Z,23.30
2018-08-16T07:47:32.597Z,23.20
2018-08-16T07:50:00.609Z,23.40
2018-08-16T07:52:28.655Z,23.50
2018-08-16T07:54:56.734Z,23.50
2018-08-16T07:57:24.756Z,23.60
2018-08-16T07:59:52.772Z,23.60
2018-08-16T08:02:20.804Z,23.50
2018-08-16T08:04:48.821Z,23.60
2018-08-16T08:07:16.859Z,23.70
2018-08-16T08:09:44.976Z,23.70
2018-08-16T08:12:12.920Z,23.70
2018-08-16T08:14:40.975Z,23.70
2018-08-16T08:17:09.003Z,23.70
2018-08-16T08:19:37.041Z,23.80
2018-08-16T08:22:05.090Z,23.80
2018-08-16T08:24:33.123Z,23.90
2018-08-16T08:27:01.202Z,24.00
2018-08-16T08:29:29.244Z,24.10
2018-08-16T08:31:57.382Z,24.10
2018-08-16T08:34:25.449Z,24.20
2018-08-16T08:37:05.191Z,24.30
2018-08-16T08:39:33.307Z,24.40
2018-08-16T08:42:01.329Z,24.50
2018-08-16T08:44:29.392Z,24.60
2018-08-16T08:46:57.440Z,24.70
2018-08-16T08:49:25.476Z,24.80
2018-08-16T08:51:54.319Z,25.00
2018-08-16T08:54:42.251Z,25.00
2018-08-16T08:57:21.857Z,25.10
2018-08-16T08:59:49.890Z,25.20
2018-08-16T09:02:17.956Z,25.30
2018-08-16T09:04:46.009Z,25.40
2018-08-16T09:07:15.396Z,25.50
2018-08-16T09:11:04.568Z,25.40
2018-08-16T09:13:44.500Z,25.30
2018-08-16T09:16:15.605Z,25.10
2018-08-16T09:18:43.652Z,24.90
2018-08-16T09:21:12.326Z,24.80
2018-08-16T09:23:40.355Z,24.80
2018-08-16T09:26:13.750Z,24.90
2018-08-16T09:28:41.961Z,25.00
2018-08-16T09:31:22.291Z,25.00
2018-08-16T09:34:01.717Z,24.90
2018-08-16T09:36:29.747Z,25.00
2018-08-16T09:38:58.295Z,25.10
2018-08-16T09:41:26.575Z,25.30
2018-08-16T09:43:54.592Z,25.40
2018-08-16T09:47:05.462Z,25.50
2018-08-16T09:49:35.432Z,25.50
2018-08-16T09:52:03.982Z,25.60
2018-08-16T09:54:31.996Z,25.70
2018-08-16T09:57:01.195Z,25.70
2018-08-16T09:59:29.236Z,25.80
2018-08-16T10:01:57.317Z,25.70
2018-08-16T10:04:25.348Z,25.70
2018-08-16T10:06:53.342Z,25.70
2018-08-16T10:09:24.507Z,25.70
2018-08-16T10:11:52.881Z,25.70
2018-08-16T10:14:21.377Z,25.80
2018-08-16T10:16:49.556Z,26.00
2018-08-16T10:19:17.712Z,26.10
2018-08-16T10:21:45.764Z,26.20
2018-08-16T10:24:13.924Z,26.10
2018-08-16T10:26:42.120Z,26.20
2018-08-16T10:29:10.785Z,26.10
2018-08-16T10:31:38.812Z,26.20
2018-08-16T10:34:06.869Z,26.40
2018-08-16T10:36:34.920Z,26.30
2018-08-16T10:39:03.273Z,26.30
2018-08-16T10:41:31.292Z,26.50
2018-08-16T10:43:59.314Z,26.60
2018-08-16T10:46:27.343Z,26.60
2018-08-16T10:48:55.456Z,26.60
2018-08-16T10:51:23.452Z,26.60
2018-08-16T10:53:51.464Z,26.60
2018-08-16T10:56:19.512Z,26.60
2018-08-16T10:58:47.548Z,26.70
2018-08-16T11:01:15.646Z,26.80
2018-08-16T11:03:43.625Z,26.90
2018-08-16T11:06:11.621Z,27.10
2018-08-16T11:08:39.637Z,27.20
2018-08-16T11:11:07.900Z,27.00
2018-08-16T11:13:35.933Z,27.00
2018-08-16T11:16:03.989Z,27.10
2018-08-16T11:18:32.061Z,27.20
2018-08-16T11:21:00.086Z,27.30
2018-08-16T11:23:28.104Z,27.10
2018-08-16T11:25:56.127Z,27.00
2018-08-16T11:28:24.179Z,26.80
2018-08-16T11:30:52.200Z,26.70
2018-08-16T11:33:20.241Z,26.80
2018-08-16T11:35:48.245Z,27.00
2018-08-16T11:38:16.248Z,27.20
2018-08-16T11:40:44.305Z,27.30
2018-08-16T11:43:12.394Z,27.20
2018-08-16T11:45:40.395Z,27.20
2018-08-16T11:48:08.420Z,27.30
2018-08-16T11:50:36.469Z,27.40
2018-08-16T11:53:04.508Z,27.50
2018-08-16T11:55:32.515Z,27.50
2018-08-16T11:58:00.521Z,27.50
2018-08-16T12:00:28.557Z,27.60
2018-08-16T12:02:56.560Z,27.80
2018-08-16T12:05:24.753Z,28.00
2018-08-16T12:07:52.780Z,28.20
2018-08-16T12:10:20.845Z,28.30
2018-08-16T12:12:48.858Z,28.40
2018-08-16T12:15:16.968Z,28.40
2018-08-16T12:17:44.915Z,28.40
2018-08-16T12:20:12.968Z,28.20
2018-08-16T12:22:40.984Z,28.30
2018-08-16T12:25:09.212Z,28.10
2018-08-16T12:27:37.321Z,28.10
2018-08-16T12:30:06.536Z,28.20
2018-08-16T12:32:34.584Z,28.40
2018-08-16T12:35:02.632Z,28.60
2018-08-16T12:37:30.652Z,28.80
2018-08-16T12:39:58.700Z,28.90
2018-08-16T12:42:26.729Z,28.90
2018-08-16T12:44:54.781Z,28.80
2018-08-16T12:47:22.812Z,28.60
2018-08-16T12:49:50.833Z,28.30
2018-08-16T12:52:18.880Z,28.10
2018-08-16T12:54:46.927Z,28.20
2018-08-16T12:57:14.985Z,28.40
2018-08-16T12:59:43.008Z,28.60
2018-08-16T13:02:11.170Z,28.80
2018-08-16T13:04:39.199Z,28.80
2018-08-16T13:07:07.234Z,28.90
2018-08-16T13:09:35.279Z,29.00
2018-08-16T13:12:03.323Z,29.10
2018-08-16T13:14:31.333Z,29.20
2018-08-16T13:16:59.409Z,29.20
2018-08-16T13:19:27.418Z,29.20
2018-08-16T13:21:55.463Z,29.20
2018-08-16T13:24:23.492Z,29.30
2018-08-16T13:26:51.553Z,29.30
2018-08-16T13:29:19.576Z,29.30
2018-08-16T13:31:47.603Z,29.40
2018-08-16T13:34:15.681Z,29.40
2018-08-16T13:36:43.700Z,29.30
2018-08-16T13:39:13.080Z,29.30
2018-08-16T13:41:41.147Z,29.20
2018-08-16T13:44:09.620Z,29.40
2018-08-16T13:46:37.669Z,29.50
2018-08-16T13:49:06.299Z,29.50
2018-08-16T13:51:34.312Z,29.30
2018-08-16T13:54:02.344Z,29.30
2018-08-16T13:56:30.401Z,29.50
2018-08-16T13:58:58.440Z,29.60
2018-08-16T14:01:26.452Z,29.50
2018-08-16T14:03:54.524Z,29.40
2018-08-16T14:06:22.608Z,29.60
2018-08-16T14:08:50.648Z,29.80
2018-08-16T14:11:18.685Z,29.80
2018-08-16T14:13:46.716Z,29.80
2018-08-16T14:16:14.743Z,29.80
2018-08-16T14:18:42.795Z,29.80
2018-08-16T14:21:10.812Z,29.90
2018-08-16T14:23:38.939Z,30.10
2018-08-16T14:26:07.096Z,30.30
2018-08-16T14:28:35.036Z,30.40
2018-08-16T14:31:03.121Z,30.50
2018-08-16T14:33:31.153Z,30.60
2018-08-16T14:35:59.194Z,30.50
2018-08-16T14:38:27.292Z,30.20
2018-08-16T14:40:55.324Z,30.00
2018-08-16T14:43:23.364Z,30.00
2018-08-16T14:45:51.478Z,30.20
2018-08-16T14:48:19.520Z,30.40
2018-08-16T14:50:47.561Z,30.40
2018-08-16T14:53:15.606Z,30.40
2018-08-16T14:55:43.639Z,30.50
2018-08-16T14:58:11.667Z,30.50
2018-08-16T15:00:39.704Z,30.30
2018-08-16T15:03:07.735Z,30.10
2018-08-16T15:05:35.775Z,30.10
2018-08-16T15:08:03.780Z,30.40
2018-08-16T15:10:39.715Z,30.20
2018-08-16T15:13:07.798Z,30.10
2018-08-16T15:15:35.828Z,30.20
2018-08-16T15:18:03.865Z,30.50
2018-08-16T15:20:31.904Z,31.10
2018-08-16T15:23:00.014Z,31.40
2018-08-16T15:25:28.164Z,31.60
2018-08-16T15:27:56.201Z,30.60
2018-08-16T15:30:24.222Z,32.00
2018-08-16T15:32:52.733Z,32.40
2018-08-16T15:35:20.818Z,32.60
2018-08-16T15:37:48.989Z,32.00
2018-08-16T15:40:17.016Z,31.50
2018-08-16T15:42:45.063Z,31.10
2018-08-16T15:45:13.079Z,30.80
2018-08-16T15:47:41.167Z,30.70
2018-08-16T15:50:09.164Z,31.30
2018-08-16T15:52:37.189Z,32.10
2018-08-16T15:55:05.852Z,32.70
2018-08-16T15:57:33.881Z,34.00
2018-08-16T16:00:01.994Z,35.00
2018-08-16T16:02:30.260Z,36.70
2018-08-16T16:04:58.268Z,37.70
2018-08-16T16:07:26.284Z,37.90
2018-08-16T16:09:54.287Z,38.20
2018-08-16T16:12:22.301Z,37.40
2018-08-16T16:14:50.380Z,37.40
2018-08-16T16:17:18.492Z,37.30
2018-08-16T16:19:46.496Z,37.50
2018-08-16T16:22:14.528Z,37.50
2018-08-16T16:24:42.572Z,35.50
2018-08-16T16:27:10.617Z,33.70
2018-08-16T16:29:38.640Z,32.50
2018-08-16T16:34:41.659Z,31.40
2018-08-16T16:37:09.728Z,31.60
2018-08-16T16:39:37.727Z,32.00
2018-08-16T16:42:06.540Z,31.80
2018-08-16T16:44:34.604Z,31.90
2018-08-16T16:47:02.625Z,31.80
2018-08-16T16:49:30.652Z,31.60
2018-08-16T16:51:58.697Z,31.60
2018-08-16T16:54:26.751Z,31.70
2018-08-16T16:56:54.800Z,31.80
2018-08-16T16:59:22.824Z,31.40
2018-08-16T17:01:50.964Z,30.80
2018-08-16T17:04:19.552Z,31.00
2018-08-16T17:06:47.567Z,31.30
2018-08-16T17:09:15.616Z,31.30
2018-08-16T17:11:43.648Z,31.30
2018-08-16T17:14:11.692Z,31.00
2018-08-16T17:16:39.824Z,30.90
2018-08-16T17:19:07.870Z,30.90
2018-08-16T17:21:35.897Z,31.00
2018-08-16T17:24:03.924Z,30.80
2018-08-16T17:26:31.964Z,30.80
2018-08-16T17:28:59.975Z,30.50
2018-08-16T17:31:28.013Z,30.60
2018-08-16T17:33:56.059Z,30.50
2018-08-16T17:36:24.087Z,30.10
2018-08-16T17:38:52.105Z,29.90
2018-08-16T17:41:20.179Z,29.70
2018-08-16T17:43:48.200Z,29.70
2018-08-16T17:46:16.233Z,29.40
2018-08-16T17:48:44.269Z,29.00
2018-08-16T17:51:12.479Z,28.70
2018-08-16T17:53:40.661Z,28.40
2018-08-16T17:56:08.897Z,28.20
2018-08-16T17:58:36.939Z,28.00
2018-08-16T18:01:04.976Z,27.80
2018-08-16T18:03:32.981Z,27.70
2018-08-16T18:06:01.006Z,27.60
2018-08-16T18:08:29.040Z,27.60
2018-08-16T18:10:57.071Z,27.40
2018-08-16T18:13:25.103Z,27.20
2018-08-16T18:15:53.124Z,27.00
2018-08-16T18:18:21.179Z,27.00
2018-08-16T18:20:49.355Z,26.90
2018-08-16T18:23:17.412Z,26.80
2018-08-16T18:25:45.476Z,26.70
2018-08-16T18:28:13.524Z,26.60
2018-08-16T18:30:41.593Z,26.50
2018-08-16T18:33:09.720Z,26.30
2018-08-16T18:35:37.776Z,26.20
2018-08-16T18:38:06.077Z,26.20
2018-08-16T18:40:34.113Z,26.10
2018-08-16T18:43:02.192Z,26.00
2018-08-16T18:45:30.436Z,26.00
2018-08-16T18:47:58.487Z,25.90
2018-08-16T18:50:26.531Z,25.80
2018-08-16T18:52:54.555Z,25.70
2018-08-16T18:55:22.648Z,25.60
2018-08-16T18:57:50.723Z,25.50
2018-08-16T19:00:18.775Z,25.50
2018-08-16T19:02:46.809Z,25.40
2018-08-16T19:05:14.878Z,25.30
2018-08-16T19:07:42.883Z,25.30
2018-08-16T19:10:11.155Z,25.30
2018-08-16T19:12:39.338Z,25.20
2018-08-16T19:15:07.443Z,25.10
2018-08-16T19:17:35.484Z,25.10
2018-08-16T19:20:03.652Z,24.90
2018-08-16T19:22:32.332Z,24.90
2018-08-16T19:25:00.379Z,24.80
2018-08-16T19:27:28.447Z,24.70
2018-08-16T19:29:56.536Z,24.70
2018-08-16T19:32:24.506Z,24.60
2018-08-16T19:34:52.644Z,24.50
2018-08-16T19:37:20.668Z,24.50
2018-08-16T19:39:48.843Z,24.50
2018-08-16T19:42:16.960Z,24.40
2018-08-16T19:44:45.100Z,24.40
2018-08-16T19:47:13.449Z,24.30
2018-08-16T19:49:41.487Z,24.20
2018-08-16T19:52:09.525Z,24.20
2018-08-16T19:54:37.631Z,24.20
2018-08-16T19:57:06.172Z,24.00
2018-08-16T19:59:34.214Z,24.00
2018-08-16T20:02:02.255Z,24.00
2018-08-16T20:04:30.300Z,23.80
2018-08-16T20:06:58.368Z,23.70
2018-08-16T20:09:26.388Z,23.60
2018-08-16T20:11:54.435Z,23.50
2018-08-16T20:14:22.496Z,23.40
2018-08-16T20:16:50.519Z,23.30
2018-08-16T20:19:18.579Z,23.10
2018-08-16T20:21:46.572Z,23.10
2018-08-16T20:24:14.640Z,23.00
2018-08-16T20:26:42.643Z,22.90
2018-08-16T20:29:10.668Z,22.80
2018-08-16T20:31:38.707Z,22.70
2018-08-16T20:34:06.752Z,22.60
2018-08-16T20:36:34.786Z,22.50
2018-08-16T20:39:02.848Z,22.40
2018-08-16T20:41:30.900Z,22.30
2018-08-16T20:43:58.943Z,22.20
2018-08-16T20:46:26.999Z,22.20
2018-08-16T20:48:55.072Z,22.20
2018-08-16T20:51:23.108Z,22.20
2018-08-16T20:53:51.157Z,22.30
2018-08-16T20:56:19.227Z,22.30
2018-08-16T20:58:47.278Z,22.30
2018-08-16T21:01:15.317Z,22.20
2018-08-16T21:03:43.562Z,22.10
2018-08-16T21:06:11.615Z,22.10
2018-08-16T21:08:39.683Z,21.90
2018-08-16T21:11:07.779Z,21.80
2018-08-16T21:13:36.608Z,21.80
2018-08-16T21:16:04.741Z,21.70
2018-08-16T21:18:32.760Z,21.60
2018-08-16T21:21:00.784Z,21.50
2018-08-16T21:23:28.814Z,21.50
2018-08-16T21:25:56.849Z,21.40
2018-08-16T21:28:24.879Z,21.40
2018-08-16T21:30:52.912Z,21.40
2018-08-16T21:33:20.964Z,21.40
2018-08-16T21:35:49.027Z,21.30
2018-08-16T21:38:17.088Z,21.30
2018-08-16T21:40:45.114Z,21.30
2018-08-16T21:43:13.144Z,21.30
2018-08-16T21:45:41.176Z,21.20
2018-08-16T21:48:09.190Z,21.10
2018-08-16T21:50:37.281Z,21.00
2018-08-16T21:53:05.312Z,20.90
2018-08-16T21:55:33.340Z,20.90
2018-08-16T21:58:01.408Z,20.90
2018-08-16T22:00:47.324Z,20.80
2018-08-16T22:03:16.624Z,20.80
2018-08-16T22:05:55.297Z,20.80
2018-08-16T22:08:23.568Z,20.80
2018-08-16T22:10:51.596Z,20.80
2018-08-16T22:13:19.663Z,20.70
2018-08-16T22:15:47.691Z,20.70
2018-08-16T22:18:15.724Z,20.50
2018-08-16T22:20:43.779Z,20.50
2018-08-16T22:23:11.833Z,20.40
2018-08-16T22:25:40.458Z,20.40
2018-08-16T22:28:08.495Z,20.30
2018-08-16T22:30:36.545Z,20.30
2018-08-16T22:33:04.632Z,20.30
2018-08-16T22:35:32.660Z,20.30
2018-08-16T22:38:00.810Z,20.30
2018-08-16T22:40:29.103Z,20.30
2018-08-16T22:42:57.145Z,20.10
2018-08-16T22:45:25.175Z,20.10
2018-08-16T22:47:53.223Z,20.00
2018-08-16T22:50:21.268Z,19.90
2018-08-16T22:52:49.283Z,19.90
2018-08-16T22:55:17.315Z,19.90
2018-08-16T22:57:45.339Z,19.90
2018-08-16T23:00:13.376Z,19.90
2018-08-16T23:02:42.159Z,19.90
2018-08-16T23:05:10.351Z,19.80
2018-08-16T23:07:38.516Z,19.80
2018-08-16T23:10:06.751Z,19.80
2018-08-16T23:12:34.789Z,19.80
2018-08-16T23:15:02.835Z,19.80
2018-08-16T23:17:30.876Z,19.70
2018-08-16T23:19:58.891Z,19.70
2018-08-16T23:22:26.931Z,19.60
2018-08-16T23:24:54.988Z,19.60
2018-08-16T23:27:23.020Z,19.60
2018-08-16T23:29:51.036Z,19.60
2018-08-16T23:32:19.076Z,19.60
2018-08-16T23:34:47.092Z,19.50
2018-08-16T23:37:15.144Z,19.50
2018-08-16T23:39:43.207Z,19.50
2018-08-16T23:42:11.224Z,19.50
2018-08-16T23:44:39.257Z,19.50
2018-08-16T23:47:07.360Z,19.50
2018-08-16T23:49:35.371Z,19.40
2018-08-16T23:52:03.709Z,19.40
2018-08-16T23:54:31.723Z,19.40
2018-08-16T23:56:59.756Z,19.50
2018-08-16T23:59:27.800Z,19.60
